createdAt,value
2022-10-30T00:02:17.916Z,21.20
2022-10-30T00:04:45.839Z,21.20
2022-10-30T00:07:13.737Z,21.20
2022-10-30T00:09:43.043Z,21.20
2022-10-30T00:12:10.940Z,21.20
2022-10-30T00:14:39.471Z,21.20
2022-10-30T00:17:07.419Z,21.20
2022-10-30T00:19:35.264Z,21.20
2022-10-30T00:24:30.659Z,21.10
2022-10-30T00:26:59.722Z,21.10
2022-10-30T00:29:27.873Z,21.10
2022-10-30T00:31:55.639Z,21.10
2022-10-30T00:34:23.405Z,21.10
2022-10-30T00:36:51.811Z,21.10
2022-10-30T00:39:19.956Z,21.10
2022-10-30T00:41:48.012Z,21.10
2022-10-30T00:44:39.430Z,21.00
2022-10-30T00:47:08.542Z,21.10
2022-10-30T00:49:37.772Z,21.00
2022-10-30T00:52:06.382Z,21.00
2022-10-30T00:54:34.119Z,21.00
2022-10-30T00:57:02.430Z,21.00
2022-10-30T00:59:31.697Z,21.00
2022-10-30T01:02:01.197Z,21.10
2022-10-30T01:04:30.365Z,21.60
2022-10-30T01:06:58.873Z,22.00
2022-10-30T01:09:26.789Z,22.30
2022-10-30T01:11:58.484Z,22.40
2022-10-30T01:14:26.209Z,22.50
2022-10-30T01:17:13.119Z,22.30
2022-10-30T01:19:43.364Z,20.70
2022-10-30T01:22:20.823Z,19.40
2022-10-30T01:24:54.119Z,19.80
2022-10-30T01:27:32.482Z,20.40
2022-10-30T01:30:06.213Z,20.70
2022-10-30T01:32:42.680Z,20.90
2022-10-30T01:35:13.700Z,21.00
2022-10-30T01:37:46.149Z,21.10
2022-10-30T01:40:15.809Z,21.10
2022-10-30T01:42:46.662Z,21.10
2022-10-30T01:45:16.009Z,21.10
2022-10-30T01:47:49.525Z,21.10
2022-10-30T01:50:21.910Z,21.10
2022-10-30T01:52:52.617Z,21.10
2022-10-30T01:55:28.370Z,21.10
2022-10-30T01:57:57.261Z,21.10
2022-10-30T02:00:24.995Z,21.10
2022-10-30T02:02:54.409Z,21.10
2022-10-30T02:05:26.778Z,21.10
2022-10-30T02:07:54.923Z,21.10
2022-10-30T02:10:23.410Z,21.10
2022-10-30T02:12:51.257Z,21.10
2022-10-30T02:15:19.225Z,21.10
2022-10-30T02:17:47.379Z,21.10
2022-10-30T02:20:17.933Z,21.10
2022-10-30T02:22:45.796Z,21.10
2022-10-30T02:25:14.049Z,21.00
2022-10-30T02:27:41.847Z,21.00
2022-10-30T02:30:10.212Z,21.00
2022-10-30T02:32:37.974Z,21.00
2022-10-30T02:35:06.670Z,21.00
2022-10-30T02:37:36.155Z,21.00
2022-10-30T02:40:03.955Z,21.00
2022-10-30T02:42:31.711Z,21.00
2022-10-30T02:44:59.472Z,21.00
2022-10-30T02:47:27.393Z,21.00
2022-10-30T02:49:55.455Z,21.00
2022-10-30T02:52:23.206Z,20.90
2022-10-30T02:54:52.694Z,20.90
2022-10-30T02:57:20.420Z,20.90
2022-10-30T02:59:48.166Z,20.90
2022-10-30T03:02:16.406Z,20.90
2022-10-30T03:04:44.412Z,20.90
2022-10-30T03:07:13.464Z,20.90
2022-10-30T03:09:41.409Z,20.90
2022-10-30T03:12:11.144Z,20.80
2022-10-30T03:14:39.467Z,20.90
2022-10-30T03:17:07.830Z,20.80
2022-10-30T03:19:36.397Z,20.80
2022-10-30T03:22:04.402Z,20.80
2022-10-30T03:24:32.391Z,20.80
2022-10-30T03:27:00.257Z,20.80
2022-10-30T03:29:29.955Z,20.80
2022-10-30T03:31:57.976Z,20.80
2022-10-30T03:34:26.035Z,20.80
2022-10-30T03:36:53.956Z,20.80
2022-10-30T03:39:22.231Z,20.80
2022-10-30T03:41:50.304Z,20.80
2022-10-30T03:44:18.083Z,20.70
2022-10-30T03:46:47.354Z,20.70
2022-10-30T03:49:15.126Z,20.70
2022-10-30T03:51:42.890Z,20.70
2022-10-30T03:54:11.047Z,20.70
2022-10-30T03:56:38.802Z,20.80
2022-10-30T03:59:06.560Z,20.70
2022-10-30T04:01:34.488Z,20.70
2022-10-30T04:04:03.625Z,20.70
2022-10-30T04:06:31.358Z,20.70
2022-10-30T04:08:59.497Z,20.70
2022-10-30T04:11:27.334Z,20.70
2022-10-30T04:13:55.528Z,20.70
2022-10-30T04:16:23.289Z,20.70
2022-10-30T04:18:51.420Z,20.70
2022-10-30T04:21:20.488Z,20.70
2022-10-30T04:23:48.630Z,20.70
2022-10-30T04:26:16.383Z,20.60
2022-10-30T04:28:44.573Z,20.60
2022-10-30T04:31:12.305Z,20.60
2022-10-30T04:33:40.734Z,20.70
2022-10-30T04:36:09.622Z,20.60
2022-10-30T04:38:39.197Z,20.60
2022-10-30T04:41:07.143Z,20.60
2022-10-30T04:43:35.525Z,20.60
2022-10-30T04:46:05.970Z,20.60
2022-10-30T04:48:35.510Z,20.50
2022-10-30T04:51:03.476Z,20.50
2022-10-30T04:53:31.764Z,20.50
2022-10-30T04:56:01.013Z,20.50
2022-10-30T04:58:28.802Z,20.50
2022-10-30T05:01:01.965Z,20.50
2022-10-30T05:03:31.436Z,20.50
2022-10-30T05:06:00.367Z,20.40
2022-10-30T05:08:28.096Z,20.40
2022-10-30T05:10:56.348Z,20.40
2022-10-30T05:13:25.537Z,20.40
2022-10-30T05:15:55.896Z,20.40
2022-10-30T05:18:23.635Z,20.40
2022-10-30T05:20:51.602Z,20.40
2022-10-30T05:23:19.517Z,20.40
2022-10-30T05:25:47.484Z,20.40
2022-10-30T05:28:15.829Z,20.40
2022-10-30T05:30:45.685Z,20.40
2022-10-30T05:33:16.004Z,20.30
2022-10-30T05:35:43.878Z,20.30
2022-10-30T05:38:11.819Z,20.30
2022-10-30T05:40:39.606Z,20.30
2022-10-30T05:43:07.441Z,20.30
2022-10-30T05:45:35.244Z,20.30
2022-10-30T05:48:05.223Z,20.30
2022-10-30T05:50:33.125Z,20.30
2022-10-30T05:53:01.345Z,20.30
2022-10-30T05:55:29.315Z,20.30
2022-10-30T05:57:58.059Z,20.30
2022-10-30T06:00:26.327Z,20.30
2022-10-30T06:02:54.151Z,20.20
2022-10-30T06:05:23.282Z,20.20
2022-10-30T06:07:51.358Z,20.20
2022-10-30T06:10:19.126Z,20.20
2022-10-30T06:12:54.035Z,20.20
2022-10-30T06:15:22.087Z,20.20
2022-10-30T06:17:50.102Z,20.20
2022-10-30T06:20:18.662Z,20.20
2022-10-30T06:22:56.542Z,20.10
2022-10-30T06:25:24.371Z,20.20
2022-10-30T06:27:52.569Z,20.20
2022-10-30T06:30:20.455Z,20.20
2022-10-30T06:32:48.719Z,20.10
2022-10-30T06:35:17.000Z,20.10
2022-10-30T06:37:48.504Z,20.10
2022-10-30T06:40:17.765Z,20.10
2022-10-30T06:42:45.742Z,20.10
2022-10-30T06:45:13.940Z,20.10
2022-10-30T06:47:41.953Z,20.10
2022-10-30T06:50:11.277Z,20.10
2022-10-30T06:52:41.591Z,20.10
2022-10-30T06:55:09.855Z,20.10
2022-10-30T06:57:39.465Z,20.10
2022-10-30T07:00:08.349Z,20.10
2022-10-30T07:02:36.449Z,20.10
2022-10-30T07:05:04.286Z,20.10
2022-10-30T07:07:32.462Z,20.00
2022-10-30T07:10:00.242Z,20.00
2022-10-30T07:12:28.074Z,20.10
2022-10-30T07:14:57.575Z,20.10
2022-10-30T07:17:25.388Z,20.10
2022-10-30T07:19:53.560Z,20.10
2022-10-30T07:22:21.335Z,20.10
2022-10-30T07:24:49.090Z,20.10
2022-10-30T07:27:16.830Z,20.10
2022-10-30T07:29:44.611Z,20.10
2022-10-30T07:32:14.546Z,20.20
2022-10-30T07:34:42.668Z,20.20
2022-10-30T07:37:10.429Z,20.20
2022-10-30T07:39:38.502Z,20.20
2022-10-30T07:42:06.324Z,20.20
2022-10-30T07:44:34.093Z,20.20
2022-10-30T07:47:01.873Z,20.20
2022-10-30T07:49:31.386Z,20.30
2022-10-30T07:51:59.337Z,20.30
2022-10-30T07:54:27.344Z,20.30
2022-10-30T07:56:55.307Z,20.30
2022-10-30T07:59:23.233Z,20.30
2022-10-30T08:01:51.800Z,20.40
2022-10-30T08:04:19.922Z,20.40
2022-10-30T08:06:50.063Z,20.50
2022-10-30T08:09:18.052Z,20.50
2022-10-30T08:11:46.517Z,20.60
2022-10-30T08:14:14.440Z,20.60
2022-10-30T08:16:42.727Z,20.60
2022-10-30T08:19:10.757Z,20.70
2022-10-30T08:21:38.687Z,20.70
2022-10-30T08:24:08.497Z,20.80
2022-10-30T08:26:36.761Z,20.90
2022-10-30T08:29:04.549Z,21.00
2022-10-30T08:31:32.337Z,21.20
2022-10-30T08:34:00.456Z,21.40
2022-10-30T08:36:28.454Z,21.50
2022-10-30T08:38:56.485Z,21.60
2022-10-30T08:41:25.954Z,21.80
2022-10-30T08:43:54.145Z,22.00
2022-10-30T08:46:22.066Z,22.20
2022-10-30T08:48:50.577Z,22.30
2022-10-30T08:51:18.506Z,22.50
2022-10-30T08:53:47.856Z,22.60
2022-10-30T08:56:15.701Z,22.80
2022-10-30T08:58:45.267Z,22.90
2022-10-30T09:01:13.064Z,23.00
2022-10-30T09:03:42.982Z,23.20
2022-10-30T09:06:10.730Z,23.40
2022-10-30T09:08:38.612Z,23.50
2022-10-30T09:11:06.646Z,23.60
2022-10-30T09:13:34.449Z,23.70
2022-10-30T09:16:03.932Z,23.90
2022-10-30T09:18:31.753Z,24.00
2022-10-30T09:21:03.125Z,24.10
2022-10-30T09:23:32.743Z,24.20
2022-10-30T09:26:00.845Z,24.40
2022-10-30T09:28:28.582Z,24.40
2022-10-30T09:30:56.813Z,24.50
2022-10-30T09:33:25.994Z,24.60
2022-10-30T09:35:54.349Z,24.70
2022-10-30T09:38:22.123Z,24.70
2022-10-30T09:40:58.648Z,24.70
2022-10-30T09:43:31.886Z,23.30
2022-10-30T09:46:10.555Z,22.80
2022-10-30T09:48:55.413Z,22.50
2022-10-30T09:51:40.033Z,22.10
2022-10-30T09:54:12.464Z,22.50
2022-10-30T09:56:44.054Z,22.70
2022-10-30T09:59:17.916Z,22.60
2022-10-30T10:01:50.082Z,22.20
2022-10-30T10:04:26.760Z,22.20
2022-10-30T10:06:58.228Z,22.30
2022-10-30T10:09:26.582Z,22.10
2022-10-30T10:11:56.220Z,22.10
2022-10-30T10:14:25.625Z,21.90
2022-10-30T10:16:54.378Z,22.00
2022-10-30T10:19:24.501Z,22.40
2022-10-30T10:21:54.619Z,22.60
2022-10-30T10:24:23.816Z,23.10
2022-10-30T10:26:56.331Z,23.60
2022-10-30T10:29:39.323Z,24.00
2022-10-30T10:32:17.619Z,24.30
2022-10-30T10:34:56.189Z,24.60
2022-10-30T10:37:30.520Z,24.80
2022-10-30T10:40:13.453Z,25.00
2022-10-30T10:42:44.582Z,25.00
2022-10-30T10:45:21.740Z,25.10
2022-10-30T10:48:08.258Z,25.30
2022-10-30T10:50:39.057Z,25.40
2022-10-30T10:53:08.344Z,25.50
2022-10-30T10:55:37.966Z,25.70
2022-10-30T10:58:10.299Z,25.80
2022-10-30T11:00:38.541Z,25.90
2022-10-30T11:03:08.610Z,26.00
2022-10-30T11:05:40.798Z,26.10
2022-10-30T11:08:12.802Z,26.20
2022-10-30T11:10:40.629Z,26.30
2022-10-30T11:13:10.397Z,26.30
2022-10-30T11:15:44.068Z,26.40
2022-10-30T11:18:16.066Z,26.50
2022-10-30T11:20:48.309Z,26.50
2022-10-30T11:23:32.248Z,26.60
2022-10-30T11:26:02.079Z,26.60
2022-10-30T11:28:43.331Z,26.60
2022-10-30T11:31:24.792Z,26.70
2022-10-30T11:33:53.173Z,26.80
2022-10-30T11:36:24.147Z,26.50
2022-10-30T11:38:52.042Z,25.60
2022-10-30T11:41:19.756Z,25.30
2022-10-30T11:43:48.986Z,24.70
2022-10-30T11:46:22.263Z,25.20
2022-10-30T11:48:54.729Z,25.20
2022-10-30T11:51:36.915Z,25.20
2022-10-30T11:54:05.238Z,25.80
2022-10-30T11:56:33.441Z,25.70
2022-10-30T11:59:02.370Z,25.70
2022-10-30T12:01:31.177Z,26.20
2022-10-30T12:04:17.397Z,25.20
2022-10-30T12:06:47.581Z,25.90
2022-10-30T12:09:16.914Z,26.60
2022-10-30T12:11:45.499Z,26.60
2022-10-30T12:14:21.027Z,26.70
2022-10-30T12:16:50.238Z,26.60
2022-10-30T12:19:18.297Z,26.30
2022-10-30T12:21:48.870Z,26.30
2022-10-30T12:24:19.424Z,26.20
2022-10-30T12:26:49.048Z,24.40
2022-10-30T12:29:18.370Z,24.80
2022-10-30T12:31:49.468Z,25.10
2022-10-30T12:34:32.667Z,24.80
2022-10-30T12:37:05.997Z,24.30
2022-10-30T12:39:41.875Z,24.60
2022-10-30T12:42:12.746Z,24.10
2022-10-30T12:44:42.386Z,24.30
2022-10-30T12:47:12.524Z,24.40
2022-10-30T12:49:41.943Z,24.20
2022-10-30T12:52:13.883Z,24.80
2022-10-30T12:54:44.496Z,24.90
2022-10-30T12:57:15.669Z,24.70
2022-10-30T12:59:48.014Z,25.00
2022-10-30T13:02:22.629Z,24.90
2022-10-30T13:04:52.317Z,25.00
2022-10-30T13:07:24.186Z,25.40
2022-10-30T13:09:57.768Z,25.70
2022-10-30T13:12:27.885Z,25.80
2022-10-30T13:14:56.851Z,25.80
2022-10-30T13:17:24.583Z,25.80
2022-10-30T13:19:52.645Z,25.80
2022-10-30T13:22:23.850Z,25.80
2022-10-30T13:24:57.935Z,25.80
2022-10-30T13:27:32.498Z,25.70
2022-10-30T13:30:03.123Z,25.70
2022-10-30T13:32:36.693Z,25.70
2022-10-30T13:35:10.822Z,25.70
2022-10-30T13:37:43.385Z,25.80
2022-10-30T13:40:15.889Z,25.70
2022-10-30T13:42:51.560Z,25.70
2022-10-30T13:45:48.991Z,25.70
2022-10-30T13:48:19.992Z,25.70
2022-10-30T13:51:01.626Z,25.60
2022-10-30T13:53:31.043Z,25.60
2022-10-30T13:55:59.153Z,25.60
2022-10-30T13:58:27.476Z,25.50
2022-10-30T14:01:00.384Z,25.50
2022-10-30T14:03:38.384Z,25.50
2022-10-30T14:06:11.519Z,25.50
2022-10-30T14:08:42.041Z,25.50
2022-10-30T14:11:13.404Z,25.40
2022-10-30T14:13:49.494Z,25.40
2022-10-30T14:17:05.389Z,25.40
2022-10-30T14:19:33.257Z,25.40
2022-10-30T14:22:01.309Z,25.40
2022-10-30T14:24:31.225Z,25.40
2022-10-30T14:27:11.002Z,25.40
2022-10-30T14:29:42.489Z,25.40
2022-10-30T14:32:47.383Z,25.40
2022-10-30T14:35:36.349Z,25.40
2022-10-30T14:38:24.329Z,25.40
2022-10-30T14:41:06.113Z,25.30
2022-10-30T14:43:37.448Z,25.30
2022-10-30T14:46:05.876Z,25.30
2022-10-30T14:48:36.844Z,25.30
2022-10-30T14:51:09.266Z,25.30
2022-10-30T14:53:46.482Z,25.30
2022-10-30T14:56:22.275Z,25.30
2022-10-30T14:59:11.229Z,25.30
2022-10-30T15:01:44.778Z,25.30
2022-10-30T15:04:21.795Z,25.40
2022-10-30T15:06:55.276Z,25.40
2022-10-30T15:09:29.169Z,25.40
2022-10-30T15:12:17.476Z,25.40
2022-10-30T15:14:53.941Z,25.40
2022-10-30T15:17:25.376Z,25.40
2022-10-30T15:19:53.116Z,25.40
2022-10-30T15:22:21.796Z,25.40
2022-10-30T15:24:51.024Z,25.40
2022-10-30T15:27:21.099Z,25.30
2022-10-30T15:29:52.935Z,25.30
2022-10-30T15:32:21.675Z,25.40
2022-10-30T15:34:57.290Z,25.40
2022-10-30T15:37:25.691Z,25.40
2022-10-30T15:40:12.219Z,25.30
2022-10-30T15:42:41.722Z,25.30
2022-10-30T15:45:13.604Z,25.30
2022-10-30T15:47:45.843Z,25.30
2022-10-30T15:50:14.227Z,25.30
2022-10-30T15:52:42.526Z,25.30
2022-10-30T15:55:14.911Z,25.30
2022-10-30T16:00:35.736Z,25.30
2022-10-30T16:03:05.066Z,25.30
2022-10-30T16:05:33.534Z,25.30
2022-10-30T16:08:02.373Z,25.30
2022-10-30T16:10:34.210Z,25.20
2022-10-30T16:13:03.662Z,25.20
2022-10-30T16:15:32.842Z,25.20
2022-10-30T16:18:15.402Z,25.20
2022-10-30T16:20:44.607Z,25.20
2022-10-30T16:23:12.667Z,25.20
2022-10-30T16:25:44.478Z,25.20
2022-10-30T16:28:26.725Z,25.20
2022-10-30T16:30:54.608Z,25.10
2022-10-30T16:33:25.258Z,25.20
2022-10-30T16:35:55.675Z,25.10
2022-10-30T16:38:24.319Z,25.10
2022-10-30T16:40:51.978Z,25.10
2022-10-30T16:43:29.305Z,25.10
2022-10-30T16:45:57.538Z,25.10
2022-10-30T16:48:28.809Z,25.00
2022-10-30T16:51:00.678Z,25.00
2022-10-30T16:53:28.926Z,25.00
2022-10-30T16:55:57.880Z,25.00
2022-10-30T16:58:28.975Z,25.00
2022-10-30T17:00:58.303Z,25.00
2022-10-30T17:03:28.486Z,25.00
2022-10-30T17:06:00.882Z,25.00
2022-10-30T17:08:40.922Z,24.90
2022-10-30T17:11:10.755Z,25.00
2022-10-30T17:13:43.410Z,24.90
2022-10-30T17:16:23.364Z,24.90
2022-10-30T17:18:52.294Z,24.90
2022-10-30T17:21:22.020Z,24.90
2022-10-30T17:23:50.824Z,24.80
2022-10-30T17:26:19.407Z,24.80
2022-10-30T17:28:48.932Z,24.80
2022-10-30T17:31:27.030Z,24.80
2022-10-30T17:34:07.277Z,24.80
2022-10-30T17:36:35.000Z,24.80
2022-10-30T17:39:02.871Z,24.80
2022-10-30T17:41:30.945Z,24.80
2022-10-30T17:44:01.300Z,24.80
2022-10-30T17:46:29.444Z,24.80
2022-10-30T17:48:59.296Z,24.80
2022-10-30T17:51:29.163Z,24.80
2022-10-30T17:53:57.130Z,24.80
2022-10-30T17:56:26.881Z,24.80
2022-10-30T17:58:55.551Z,24.80
2022-10-30T18:01:25.791Z,24.80
2022-10-30T18:03:54.915Z,24.80
2022-10-30T18:06:24.887Z,24.80
2022-10-30T18:08:53.413Z,24.80
2022-10-30T18:11:22.968Z,24.80
2022-10-30T18:13:51.323Z,24.70
2022-10-30T18:16:19.389Z,24.70
2022-10-30T18:18:48.511Z,24.70
2022-10-30T18:21:17.138Z,24.70
2022-10-30T18:23:53.484Z,24.70
2022-10-30T18:26:22.884Z,24.60
2022-10-30T18:28:50.794Z,24.50
2022-10-30T18:31:20.403Z,24.30
2022-10-30T18:33:49.457Z,24.20
2022-10-30T18:36:18.088Z,24.10
2022-10-30T18:38:45.807Z,24.00
2022-10-30T18:41:16.039Z,23.90
2022-10-30T18:43:46.780Z,23.80
2022-10-30T18:46:15.722Z,23.80
2022-10-30T18:48:43.784Z,23.80
2022-10-30T18:51:16.534Z,23.70
2022-10-30T18:53:51.047Z,23.70
2022-10-30T18:56:19.709Z,23.90
2022-10-30T18:58:47.599Z,24.00
2022-10-30T19:01:15.987Z,23.90
2022-10-30T19:03:43.886Z,23.80
2022-10-30T19:06:13.702Z,23.80
2022-10-30T19:08:41.581Z,23.70
2022-10-30T19:11:11.316Z,23.60
2022-10-30T19:13:40.542Z,23.60
2022-10-30T19:16:11.393Z,23.50
2022-10-30T19:18:39.194Z,23.50
2022-10-30T19:21:10.278Z,23.40
2022-10-30T19:23:44.139Z,23.40
2022-10-30T19:26:13.298Z,23.40
2022-10-30T19:28:41.861Z,23.40
2022-10-30T19:31:12.146Z,23.30
2022-10-30T19:33:39.930Z,23.30
2022-10-30T19:36:08.196Z,23.30
2022-10-30T19:38:36.335Z,23.20
2022-10-30T19:41:06.509Z,23.20
2022-10-30T19:43:34.744Z,23.20
2022-10-30T19:46:02.462Z,23.20
2022-10-30T19:48:56.240Z,23.10
2022-10-30T19:51:18.384Z,23.10
2022-10-30T19:53:46.283Z,23.10
2022-10-30T19:56:15.652Z,23.10
2022-10-30T19:58:43.446Z,23.10
2022-10-30T20:01:11.888Z,23.00
2022-10-30T20:03:39.937Z,23.00
2022-10-30T20:06:08.584Z,23.00
2022-10-30T20:08:36.602Z,22.90
2022-10-30T20:11:04.788Z,22.90
2022-10-30T20:13:34.167Z,22.90
2022-10-30T20:16:03.320Z,22.90
2022-10-30T20:18:31.944Z,22.90
2022-10-30T20:21:00.910Z,22.90
2022-10-30T20:23:28.988Z,22.90
2022-10-30T20:25:59.970Z,22.90
2022-10-30T20:28:29.438Z,22.80
2022-10-30T20:30:59.202Z,22.80
2022-10-30T20:33:27.177Z,22.80
2022-10-30T20:35:56.061Z,22.70
2022-10-30T20:38:26.230Z,22.70
2022-10-30T20:40:54.455Z,22.70
2022-10-30T20:43:30.479Z,22.70
2022-10-30T20:45:59.830Z,22.60
2022-10-30T20:48:28.019Z,22.60
2022-10-30T20:50:55.944Z,22.60
2022-10-30T20:53:23.717Z,22.60
2022-10-30T20:55:51.544Z,22.60
2022-10-30T20:58:19.373Z,22.60
2022-10-30T21:00:47.379Z,22.50
2022-10-30T21:03:16.991Z,22.50
2022-10-30T21:05:46.187Z,22.50
2022-10-30T21:08:14.465Z,22.50
2022-10-30T21:10:42.805Z,22.50
2022-10-30T21:13:11.645Z,22.40
2022-10-30T21:15:40.543Z,22.40
2022-10-30T21:18:11.395Z,22.40
2022-10-30T21:20:41.503Z,22.40
2022-10-30T21:23:09.934Z,22.40
2022-10-30T21:25:37.724Z,22.40
2022-10-30T21:28:06.339Z,22.40
2022-10-30T21:30:34.421Z,22.30
2022-10-30T21:33:02.719Z,22.30
2022-10-30T21:35:33.289Z,22.30
2022-10-30T21:38:03.339Z,22.30
2022-10-30T21:40:31.726Z,22.30
2022-10-30T21:43:03.177Z,22.30
2022-10-30T21:45:35.355Z,22.30
2022-10-30T21:48:04.027Z,22.30
2022-10-30T21:50:32.292Z,22.30
2022-10-30T21:53:02.680Z,22.30
2022-10-30T21:55:30.963Z,22.20
2022-10-30T21:57:59.423Z,22.30
2022-10-30T22:00:27.863Z,22.20
2022-10-30T22:02:58.940Z,22.20
2022-10-30T22:05:27.182Z,22.20
2022-10-30T22:07:58.166Z,22.20
2022-10-30T22:10:27.551Z,22.20
2022-10-30T22:12:55.735Z,22.10
2022-10-30T22:15:23.533Z,22.10
2022-10-30T22:17:51.443Z,22.10
2022-10-30T22:20:19.394Z,22.10
2022-10-30T22:22:47.232Z,22.10
2022-10-30T22:25:15.553Z,22.10
2022-10-30T22:27:46.477Z,22.10
2022-10-30T22:30:15.575Z,22.10
2022-10-30T22:32:43.626Z,22.10
2022-10-30T22:35:11.578Z,22.00
2022-10-30T22:37:39.284Z,22.10
2022-10-30T22:40:08.384Z,22.10
2022-10-30T22:42:36.546Z,22.00
2022-10-30T22:45:06.650Z,22.00
2022-10-30T22:47:34.457Z,22.00
2022-10-30T22:50:02.703Z,22.00
2022-10-30T22:52:30.746Z,22.00
2022-10-30T22:54:58.561Z,22.00
2022-10-30T22:57:26.426Z,21.90
2022-10-30T22:59:54.541Z,21.90
2022-10-30T23:02:25.428Z,21.90
2022-10-30T23:04:55.851Z,21.90
2022-10-30T23:07:26.439Z,21.90
2022-10-30T23:09:54.505Z,21.90
2022-10-30T23:12:22.511Z,21.90
2022-10-30T23:14:50.392Z,21.90
2022-10-30T23:17:18.523Z,21.80
2022-10-30T23:19:47.879Z,21.80
2022-10-30T23:22:15.621Z,21.80
2022-10-30T23:24:43.666Z,21.80
2022-10-30T23:27:12.777Z,21.80
2022-10-30T23:29:41.781Z,21.80
2022-10-30T23:32:09.616Z,21.70
2022-10-30T23:34:40.360Z,21.70
2022-10-30T23:37:09.481Z,21.70
2022-10-30T23:39:37.214Z,21.70
2022-10-30T23:42:05.515Z,21.70
2022-10-30T23:44:33.226Z,21.70
2022-10-30T23:47:00.995Z,21.70
2022-10-30T23:49:33.172Z,21.70
2022-10-30T23:52:08.462Z,21.70
2022-10-30T23:54:37.524Z,21.60
2022-10-30T23:57:08.606Z,21.60
2022-10-30T23:59:36.349Z,21.60
